Time;durP1;ratioP1;P1;durP2;ratioP2;P2;SDS_P1;SDS_P2;PMS_P1;PMS_P2;Temp;Humidity;BMP_temperature;BMP_pressure;BME280_temperature;BME280_humidity;BME280_pressure;Samples;Min_cycle;Max_cycle;Signal;HPM_P1;HPM_P2
2022/12/20 00:02:07;;;;;;;5.95;3.88;;;;;;;10.53;69.82;99679.44;4989568;28;20145;-80
2022/12/20 00:04:34;;;;;;;9.10;4.47;;;;;;;10.53;69.80;99677.66;4973535;28;20050;-80
2022/12/20 00:07:00;;;;;;;7.45;4.40;;;;;;;10.57;69.90;99693.28;4973240;28;20058;-80
2022/12/20 00:09:26;;;;;;;5.97;4.20;;;;;;;10.58;69.88;99693.16;4990092;28;20093;-81
2022/12/20 00:11:53;;;;;;;10.43;4.47;;;;;;;10.60;69.86;99677.28;5003847;28;20085;-80
2022/12/20 00:14:19;;;;;;;7.45;3.80;;;;;;;10.60;69.96;99683.41;5010616;28;20050;-80
2022/12/20 00:16:46;;;;;;;5.47;3.97;;;;;;;10.61;70.13;99687.72;5009924;28;20492;-80
2022/12/20 00:19:12;;;;;;;7.43;3.75;;;;;;;10.62;70.08;99678.06;5014116;28;20045;-80
2022/12/20 00:21:39;;;;;;;5.30;4.25;;;;;;;10.64;70.02;99677.03;5029800;28;20088;-80
2022/12/20 00:24:05;;;;;;;6.20;4.53;;;;;;;10.65;70.12;99686.59;5030085;28;20115;-80
2022/12/20 00:26:33;;;;;;;5.13;4.00;;;;;;;10.66;70.29;99677.78;5029865;28;20061;-80
2022/12/20 00:29:00;;;;;;;6.22;4.50;;;;;;;10.68;70.21;99677.69;5030049;28;20057;-80
2022/12/20 00:31:29;;;;;;;5.38;3.90;;;;;;;10.71;70.18;99674.03;5029688;28;20065;-80
2022/12/20 00:33:57;;;;;;;7.13;4.57;;;;;;;10.73;70.18;99673.00;5029844;28;20064;-81
2022/12/20 00:36:26;;;;;;;5.72;4.00;;;;;;;10.74;70.06;99661.53;5029666;28;20077;-80
2022/12/20 00:38:54;;;;;;;6.55;4.40;;;;;;;10.76;70.26;99659.66;5029671;28;20077;-81
2022/12/20 00:41:23;;;;;;;6.22;4.40;;;;;;;10.78;70.41;99665.69;5029503;28;20058;-80
2022/12/20 00:43:50;;;;;;;6.60;3.72;;;;;;;10.82;70.30;99659.31;5029838;28;20049;-80
2022/12/20 00:46:20;;;;;;;6.20;4.07;;;;;;;10.85;69.81;99654.78;5029486;28;20058;-80
2022/12/20 00:48:46;;;;;;;5.60;4.03;;;;;;;10.87;70.56;99645.84;5029554;28;20054;-80
2022/12/20 00:51:16;;;;;;;9.32;4.55;;;;;;;10.89;70.10;99648.38;5029869;28;20131;-80
2022/12/20 00:53:44;;;;;;;5.07;3.85;;;;;;;10.90;70.34;99635.13;5029761;28;20141;-80
2022/12/20 00:56:11;;;;;;;4.85;3.78;;;;;;;10.92;70.36;99638.50;5029671;28;20053;-80
2022/12/20 00:58:40;;;;;;;5.40;4.07;;;;;;;10.94;70.39;99638.41;5029575;28;20053;-80
2022/12/20 01:01:14;;;;;;;5.22;3.90;;;;;;;10.94;69.90;99646.31;5029587;28;20123;-80
2022/12/20 01:03:41;;;;;;;5.97;3.85;;;;;;;10.99;70.30;99638.16;5029713;28;20069;-80
2022/12/20 01:06:09;;;;;;;5.55;4.00;;;;;;;11.00;70.25;99632.78;5029630;28;20116;-80
2022/12/20 01:08:35;;;;;;;6.53;3.78;;;;;;;11.01;70.23;99631.84;5029531;28;20061;-80
2022/12/20 01:11:08;;;;;;;5.20;3.70;;;;;;;11.01;70.16;99626.59;5029416;28;20057;-81
2022/12/20 01:13:37;;;;;;;5.57;3.80;;;;;;;11.04;70.16;99633.44;5029645;28;20053;-81
2022/12/20 01:16:09;;;;;;;9.07;3.90;;;;;;;11.04;69.83;99634.31;5011710;28;20280;-81
2022/12/20 01:18:35;;;;;;;6.65;3.33;;;;;;;11.06;70.21;99626.28;5029490;28;20061;-80
2022/12/20 01:21:05;;;;;;;7.25;4.00;;;;;;;11.06;70.10;99635.03;5031682;28;20064;-80
2022/12/20 01:23:31;;;;;;;5.35;3.72;;;;;;;11.08;70.20;99633.19;5032946;28;20522;-81
2022/12/20 01:26:00;;;;;;;4.70;3.78;;;;;;;11.06;69.81;99624.50;5032788;28;20049;-80
2022/12/20 01:28:28;;;;;;;4.32;3.40;;;;;;;11.08;70.29;99635.81;5015067;28;20076;-80
2022/12/20 01:33:28;;;;;;;6.35;3.55;;;;;;;11.11;70.27;99626.00;5044316;23;20108;-88
2022/12/20 01:35:56;;;;;;;4.72;3.40;;;;;;;11.13;70.39;99621.47;5015976;28;20509;-86
2022/12/20 01:38:24;;;;;;;5.75;3.60;;;;;;;11.15;70.25;99619.63;5013704;28;20057;-88
2022/12/20 01:40:50;;;;;;;5.18;3.65;;;;;;;11.17;70.34;99615.09;5035523;28;20053;-88
2022/12/20 01:43:42;;;;;;;5.78;3.30;;;;;;;11.14;69.43;99625.84;5035571;28;20394;-86
2022/12/20 01:46:09;;;;;;;5.20;3.60;;;;;;;11.19;70.10;99629.03;5035106;28;20547;-88
2022/12/20 01:48:36;;;;;;;5.97;3.22;;;;;;;11.21;70.19;99632.41;5035459;28;20057;-88
2022/12/20 01:51:03;;;;;;;5.20;3.08;;;;;;;11.22;70.06;99631.47;5018021;28;20100;-88
2022/12/20 01:53:37;;;;;;;4.40;3.30;;;;;;;11.21;69.28;99624.50;5017356;28;20065;-88
2022/12/20 01:56:06;;;;;;;4.63;3.28;;;;;;;11.24;69.45;99639.25;5034781;28;20053;-88
2022/12/20 01:58:36;;;;;;;5.65;3.40;;;;;;;11.25;69.76;99619.91;5035132;28;20069;-88
2022/12/20 02:01:02;;;;;;;4.57;2.92;;;;;;;11.27;70.16;99626.75;5017737;28;20100;-88
2022/12/20 02:03:31;;;;;;;5.32;3.08;;;;;;;11.26;69.75;99617.19;5017582;28;20069;-88
2022/12/20 02:06:19;;;;;;;4.30;3.22;;;;;;;11.28;69.15;99604.72;5022265;28;20125;-88
2022/12/20 02:08:49;;;;;;;5.07;3.20;;;;;;;11.32;69.70;99616.78;4997853;28;20058;-88
2022/12/20 02:11:21;;;;;;;4.05;2.80;;;;;;;11.33;69.10;99613.19;4997935;28;20521;-88
2022/12/20 02:14:07;;;;;;;5.35;2.85;;;;;;;11.36;68.49;99619.22;4998095;28;20053;-88
2022/12/20 02:16:45;;;;;;;6.22;3.08;;;;;;;11.39;69.01;99614.59;5014309;28;20046;-89
2022/12/20 02:19:25;;;;;;;4.30;2.83;;;;;;;11.39;67.95;99617.25;5015157;28;20061;-88
2022/12/20 02:22:05;;;;;;;5.20;2.95;;;;;;;11.41;68.65;99610.09;4997724;28;20053;-88
2022/12/20 02:25:07;;;;;;;5.75;2.83;;;;;;;11.44;68.60;99606.41;5014615;28;20173;-88
2022/12/20 02:27:45;;;;;;;4.13;2.70;;;;;;;11.46;68.60;99593.97;4981872;28;20049;-88
2022/12/20 02:30:34;;;;;;;4.70;2.92;;;;;;;11.46;67.87;99586.06;5014785;28;20085;-88
2022/12/20 02:33:10;;;;;;;5.35;2.83;;;;;;;11.49;68.32;99579.75;5013938;28;20053;-88
2022/12/20 02:35:39;;;;;;;3.80;2.83;;;;;;;11.53;68.91;99591.78;4997190;28;20409;-88
2022/12/20 02:38:27;;;;;;;4.78;2.88;;;;;;;11.50;68.00;99587.56;5014249;28;20062;-88
2022/12/20 02:40:59;;;;;;;5.63;3.33;;;;;;;11.52;68.09;99585.69;4997426;28;20050;-88
2022/12/20 02:46:22;;;;;;;6.60;2.83;;;;;;;11.58;69.20;99585.28;5014403;28;20453;-88
2022/12/20 02:48:52;;;;;;;3.63;2.72;;;;;;;11.59;69.05;99594.88;5014176;28;20058;-88
2022/12/20 02:51:22;;;;;;;2.92;2.60;;;;;;;11.59;68.54;99592.25;5014001;28;20108;-88
2022/12/20 02:53:49;;;;;;;4.28;2.45;;;;;;;11.64;69.03;99593.75;4996735;28;20061;-88
2022/12/20 02:56:40;;;;;;;7.57;2.80;;;;;;;11.62;66.97;99608.81;5014395;28;20057;-89
2022/12/20 02:59:47;;;;;;;3.58;2.70;;;;;;;11.61;67.09;99600.06;4996829;28;20057;-88
2022/12/20 03:02:14;;;;;;;3.33;2.50;;;;;;;11.70;68.99;99606.56;4996853;28;20108;-88
2022/12/20 03:04:43;;;;;;;4.80;2.70;;;;;;;11.70;68.63;99606.56;5014113;28;20049;-88
2022/12/20 03:07:12;;;;;;;4.32;2.47;;;;;;;11.75;68.85;99600.97;5013980;28;20061;-88
2022/12/20 03:09:42;;;;;;;4.13;2.28;;;;;;;11.78;68.56;99600.78;5014092;28;20558;-88
2022/12/20 03:12:11;;;;;;;4.63;2.22;;;;;;;11.82;69.00;99602.28;5013986;28;20060;-88
2022/12/20 03:14:39;;;;;;;3.22;2.22;;;;;;;11.85;68.76;99608.19;5014145;28;20058;-88
2022/12/20 03:17:24;;;;;;;3.22;2.25;;;;;;;11.84;67.73;99605.63;5018552;28;20240;-88
2022/12/20 03:19:51;;;;;;;4.75;2.17;;;;;;;11.91;69.04;99601.66;5016530;28;20144;-88
2022/12/20 03:22:17;;;;;;;6.93;2.67;;;;;;;11.94;69.14;99592.69;5033718;28;20053;-88
2022/12/20 03:24:44;;;;;;;2.85;2.10;;;;;;;11.96;68.89;99591.66;5016207;28;20477;-88
2022/12/20 03:27:17;;;;;;;5.15;2.40;;;;;;;11.94;68.02;99598.84;5015405;28;20460;-88
2022/12/20 03:29:44;;;;;;;2.88;2.30;;;;;;;11.98;68.99;99597.69;5016140;28;20057;-88
2022/12/20 03:32:11;;;;;;;7.03;2.50;;;;;;;11.97;68.70;99593.34;5017112;28;20045;-88
2022/12/20 03:34:38;;;;;;;2.88;2.00;;;;;;;11.95;68.98;99597.03;5014492;28;20058;-88
2022/12/20 03:37:05;;;;;;;7.10;2.15;;;;;;;11.91;69.08;99595.53;5024102;28;20069;-88
2022/12/20 03:39:32;;;;;;;2.80;2.25;;;;;;;11.86;69.10;99593.22;5013074;28;20057;-88
2022/12/20 03:42:00;;;;;;;5.30;2.60;;;;;;;11.81;68.95;99590.84;5015888;28;20107;-88
2022/12/20 03:44:27;;;;;;;3.00;2.30;;;;;;;11.79;69.45;99587.50;5032225;28;20053;-88
2022/12/20 03:46:53;;;;;;;3.63;2.55;;;;;;;11.76;69.66;99582.41;5033001;28;20378;-88
2022/12/20 03:49:20;;;;;;;4.78;2.40;;;;;;;11.73;69.70;99580.81;5033170;28;20099;-87
2022/12/20 03:51:46;;;;;;;5.50;2.78;;;;;;;11.72;69.85;99596.72;5015771;28;20061;-88
2022/12/20 03:54:13;;;;;;;2.80;2.28;;;;;;;11.71;69.83;99587.97;5033276;28;20111;-88
2022/12/20 03:56:39;;;;;;;3.40;2.33;;;;;;;11.71;70.05;99587.97;5015395;28;20107;-88
2022/12/20 03:59:06;;;;;;;4.50;2.45;;;;;;;11.70;69.98;99593.38;5033007;28;20143;-88
2022/12/20 04:01:35;;;;;;;7.15;2.75;;;;;;;11.71;69.80;99589.78;5032698;28;20103;-88
2022/12/20 04:04:02;;;;;;;3.75;2.00;;;;;;;11.75;69.90;99604.47;5015579;28;20474;-88
2022/12/20 04:06:31;;;;;;;4.18;2.65;;;;;;;11.78;69.55;99619.22;5032640;28;20060;-88
2022/12/20 04:08:57;;;;;;;3.22;2.25;;;;;;;11.79;69.67;99610.38;5015169;28;20053;-88
2022/12/20 04:11:31;;;;;;;4.38;3.05;;;;;;;11.78;69.07;99598.97;5015482;28;20126;-88
2022/12/20 04:13:57;;;;;;;4.22;2.58;;;;;;;11.81;69.58;99601.41;5023437;28;20112;-88
2022/12/20 04:16:27;;;;;;;2.75;2.22;;;;;;;11.81;69.44;99595.31;5013035;28;20054;-88
2022/12/20 04:18:55;;;;;;;3.38;2.47;;;;;;;11.81;69.45;99580.31;4995670;28;20152;-88
2022/12/20 04:21:30;;;;;;;4.85;2.50;;;;;;;11.78;68.95;99579.69;4995667;28;20077;-88
2022/12/20 04:23:59;;;;;;;4.47;2.53;;;;;;;11.78;69.44;99590.22;5012909;28;20454;-88
2022/12/20 04:26:26;;;;;;;4.07;2.80;;;;;;;11.77;69.58;99578.00;5012928;28;20061;-88
2022/12/20 04:28:53;;;;;;;4.72;2.95;;;;;;;11.75;69.69;99580.72;5012797;28;20124;-88
2022/12/20 04:31:19;;;;;;;3.90;2.70;;;;;;;11.72;69.56;99567.72;4995612;28;20116;-88
2022/12/20 04:33:50;;;;;;;5.50;2.50;;;;;;;11.69;69.76;99560.88;4995843;28;20046;-88
2022/12/20 04:36:18;;;;;;;5.70;2.80;;;;;;;11.68;69.68;99566.22;5012733;28;20069;-88
2022/12/20 04:38:44;;;;;;;4.82;2.60;;;;;;;11.67;69.96;99560.09;4995379;28;20058;-88
2022/12/20 04:41:21;;;;;;;3.70;2.20;;;;;;;11.63;69.55;99566.56;5013182;28;20057;-88
2022/12/20 04:43:53;;;;;;;7.43;2.55;;;;;;;11.64;69.88;99559.47;5013192;28;20054;-88
2022/12/20 04:46:21;;;;;;;3.75;2.42;;;;;;;11.65;70.16;99540.06;4995241;28;20639;-88
2022/12/20 04:48:48;;;;;;;5.13;2.63;;;;;;;11.65;70.42;99535.66;4995097;28;20069;-88
2022/12/20 04:51:26;;;;;;;5.97;2.47;;;;;;;11.65;70.38;99533.00;5012534;28;20058;-88
2022/12/20 04:53:53;;;;;;;2.67;2.45;;;;;;;11.67;70.45;99533.75;5012866;28;20057;-88
2022/12/20 04:56:23;;;;;;;3.67;2.60;;;;;;;11.69;70.35;99546.81;5015662;28;20050;-88
2022/12/20 04:58:52;;;;;;;4.03;2.47;;;;;;;11.69;70.19;99542.41;5016276;28;20057;-88
2022/12/20 05:01:19;;;;;;;7.05;3.08;;;;;;;11.72;70.30;99546.63;4999287;28;20186;-88
2022/12/20 05:03:48;;;;;;;3.28;2.63;;;;;;;11.71;70.08;99548.41;4999244;28;20053;-88
2022/12/20 05:06:15;;;;;;;4.30;2.40;;;;;;;11.74;70.24;99555.31;4998853;28;20050;-88
2022/12/20 05:08:42;;;;;;;3.65;2.60;;;;;;;11.75;70.19;99546.44;5016407;28;20462;-88
2022/12/20 05:11:15;;;;;;;3.65;2.28;;;;;;;11.74;69.47;99547.41;5016097;28;20105;-89
2022/12/20 05:13:42;;;;;;;3.83;2.58;;;;;;;11.78;70.28;99526.94;5016358;28;20545;-88
2022/12/20 05:16:09;;;;;;;4.32;2.60;;;;;;;11.78;70.13;99533.03;5016617;28;20054;-88
2022/12/20 05:18:35;;;;;;;4.63;2.72;;;;;;;11.79;70.45;99516.28;4998646;28;20093;-88
2022/12/20 05:26:36;;;;;;;4.30;2.25;;;;;;;11.88;69.84;99514.00;5015727;28;20060;-88
2022/12/20 05:29:04;;;;;;;3.47;2.47;;;;;;;11.90;69.90;99517.34;4998324;28;20057;-88
2022/12/20 05:31:31;;;;;;;3.38;2.90;;;;;;;11.94;69.90;99526.75;5015912;28;20117;-88
2022/12/20 05:33:57;;;;;;;5.40;2.95;;;;;;;11.94;69.99;99524.13;4998576;28;20112;-88
2022/12/20 05:36:32;;;;;;;4.65;3.17;;;;;;;11.93;69.05;99527.72;5015509;28;20104;-88
2022/12/20 05:39:03;;;;;;;4.85;3.03;;;;;;;11.94;68.58;99532.91;4998220;28;20524;-88
2022/12/20 05:41:30;;;;;;;4.75;2.78;;;;;;;11.99;69.94;99522.03;5015834;28;20053;-88
2022/12/20 05:43:57;;;;;;;7.05;3.03;;;;;;;12.01;69.97;99514.88;4998277;28;20065;-88
2022/12/20 05:46:23;;;;;;;5.22;3.08;;;;;;;12.03;69.80;99520.88;5015597;28;20084;-88
2022/12/20 05:48:50;;;;;;;6.22;4.13;;;;;;;12.04;69.90;99517.28;4998218;28;20479;-88
2022/12/20 05:51:17;;;;;;;5.45;3.00;;;;;;;12.05;69.67;99513.75;5015662;28;20062;-88
2022/12/20 05:53:44;;;;;;;2.95;2.63;;;;;;;12.07;69.56;99517.09;4998226;28;20057;-89
2022/12/20 05:56:10;;;;;;;6.40;3.00;;;;;;;12.08;69.65;99516.16;4997985;28;20685;-89
2022/12/20 05:58:52;;;;;;;6.43;3.30;;;;;;;12.03;67.72;99526.13;5015461;28;20057;-88
2022/12/20 06:01:19;;;;;;;3.70;3.00;;;;;;;12.10;69.48;99527.47;5015344;28;20141;-88
2022/12/20 06:03:47;;;;;;;4.95;3.35;;;;;;;12.08;69.40;99515.31;5015047;28;20093;-88
2022/12/20 06:06:13;;;;;;;4.95;2.95;;;;;;;12.12;69.58;99512.34;5014582;28;20141;-88
2022/12/20 06:12:28;;;;;;;4.47;2.60;;;;;;;12.15;69.57;99511.31;5017177;28;20085;-96
2022/12/20 06:18:42;;;;;;;5.45;2.92;;;;;;;12.15;69.71;99519.22;5016855;28;20100;-96
2022/12/20 06:24:56;;;;;;;4.30;3.00;;;;;;;12.16;70.06;99498.97;5016646;28;20117;-96
2022/12/20 06:31:10;;;;;;;4.65;2.75;;;;;;;12.18;69.91;99494.44;5016739;28;20497;-96
2022/12/20 06:37:23;;;;;;;5.93;3.00;;;;;;;12.16;70.04;99509.53;5016313;28;20130;-96
2022/12/20 06:43:31;;;;;;;4.57;3.13;;;;;;;12.11;70.19;99494.84;5016313;28;20040;-96
2022/12/20 06:49:45;;;;;;;5.07;2.88;;;;;;;12.09;70.24;99512.59;5017478;28;20049;-96
2022/12/20 06:55:59;;;;;;;4.00;3.15;;;;;;;12.08;70.65;99502.97;5036598;28;20477;-93
2022/12/20 06:58:25;;;;;;;4.78;3.15;;;;;;;12.08;70.78;99499.50;5018818;23;20053;-86
2022/12/20 07:00:53;;;;;;;4.40;2.80;;;;;;;12.09;70.79;99499.41;5001994;28;20221;-85
2022/12/20 07:03:19;;;;;;;5.30;3.17;;;;;;;12.10;70.96;99495.81;4996842;28;20056;-86
2022/12/20 07:05:53;;;;;;;4.15;2.92;;;;;;;12.09;70.48;99491.47;4996283;28;20054;-86
2022/12/20 07:08:21;;;;;;;5.00;2.45;;;;;;;12.13;70.99;99492.09;4986077;28;20742;-86
2022/12/20 07:10:48;;;;;;;6.80;3.30;;;;;;;12.12;70.96;99488.63;5011318;28;20137;-86
2022/12/20 07:13:14;;;;;;;6.47;2.90;;;;;;;12.15;70.84;99489.38;5011831;28;20061;-87
2022/12/20 07:15:41;;;;;;;5.75;3.00;;;;;;;12.17;70.88;99490.09;5009905;28;20058;-86
2022/12/20 07:18:09;;;;;;;5.53;3.28;;;;;;;12.15;70.73;99494.66;5000675;28;20555;-87
2022/12/20 07:20:36;;;;;;;4.85;3.45;;;;;;;12.17;70.78;99490.09;5001861;28;20141;-85
2022/12/20 07:23:02;;;;;;;4.63;3.30;;;;;;;12.17;70.92;99498.00;4999137;28;20061;-87
2022/12/20 07:25:29;;;;;;;10.68;3.17;;;;;;;12.17;70.72;99492.72;4999949;28;20058;-87
2022/12/20 07:27:55;;;;;;;5.10;2.92;;;;;;;12.16;70.94;99491.06;5003098;28;20058;-85
2022/12/20 07:30:22;;;;;;;6.13;3.35;;;;;;;12.16;71.09;99476.06;4991236;28;20946;-88
2022/12/20 07:32:48;;;;;;;7.03;3.47;;;;;;;12.16;71.10;99483.13;5056815;23;20574;-80
2022/12/20 07:35:15;;;;;;;4.97;2.70;;;;;;;12.15;71.17;99476.19;5028769;28;20053;-80
2022/12/20 07:37:41;;;;;;;4.93;3.03;;;;;;;12.17;71.17;99482.19;5028866;28;20127;-80
2022/12/20 07:40:10;;;;;;;5.45;2.97;;;;;;;12.18;71.02;99486.53;5011234;28;20053;-80
2022/12/20 07:42:36;;;;;;;4.90;3.25;;;;;;;12.17;71.05;99475.13;5028983;28;20053;-79
2022/12/20 07:45:14;;;;;;;5.47;2.95;;;;;;;12.19;71.01;99473.22;5012853;28;20075;-79
2022/12/20 07:47:40;;;;;;;4.90;3.05;;;;;;;12.18;71.05;99484.72;5029517;28;20492;-79
2022/12/20 07:50:07;;;;;;;6.60;3.30;;;;;;;12.19;70.82;99478.47;5030436;28;20072;-79
2022/12/20 07:52:35;;;;;;;3.60;2.58;;;;;;;12.21;70.88;99473.09;5030286;28;20111;-80
2022/12/20 07:55:06;;;;;;;8.20;3.10;;;;;;;12.19;70.17;99475.84;5030240;28;20408;-80
2022/12/20 07:57:40;;;;;;;6.85;3.00;;;;;;;12.20;70.17;99469.66;5030231;28;20045;-80
2022/12/20 08:00:08;;;;;;;5.10;3.30;;;;;;;12.23;70.58;99463.31;5030332;28;20045;-80
2022/12/20 08:02:39;;;;;;;4.55;2.83;;;;;;;12.21;70.20;99465.19;5012788;28;20065;-80
2022/12/20 08:05:08;;;;;;;3.80;3.00;;;;;;;12.22;70.55;99466.88;5029958;28;20057;-80
2022/12/20 08:07:36;;;;;;;5.97;3.13;;;;;;;12.24;70.53;99472.91;5029921;28;20103;-80
2022/12/20 08:10:05;;;;;;;7.18;2.90;;;;;;;12.24;70.45;99467.63;5030079;28;20065;-80
2022/12/20 08:12:32;;;;;;;6.15;3.00;;;;;;;12.25;70.75;99458.75;5029790;28;20057;-80
2022/12/20 08:14:58;;;;;;;4.75;2.85;;;;;;;12.28;71.02;99460.34;5029647;28;20061;-80
2022/12/20 08:17:25;;;;;;;5.10;3.00;;;;;;;12.29;70.65;99460.22;5030251;28;20053;-80
2022/12/20 08:19:51;;;;;;;6.35;2.90;;;;;;;12.29;70.72;99452.31;5030113;28;20070;-80
2022/12/20 08:22:18;;;;;;;4.20;2.92;;;;;;;12.31;70.65;99460.97;5029960;28;20050;-80
2022/12/20 08:24:45;;;;;;;4.22;3.25;;;;;;;12.31;70.24;99466.25;5029751;28;20423;-80
2022/12/20 08:27:11;;;;;;;5.90;3.10;;;;;;;12.30;70.29;99469.00;5029482;28;20081;-80
2022/12/20 08:29:37;;;;;;;7.90;3.13;;;;;;;12.29;70.50;99462.88;5029550;28;20084;-80
2022/12/20 08:32:04;;;;;;;4.35;2.88;;;;;;;12.30;70.59;99451.34;5029744;28;20092;-80
2022/12/20 08:34:30;;;;;;;7.68;3.00;;;;;;;12.31;70.58;99455.72;5029858;28;20107;-80
2022/12/20 08:36:58;;;;;;;5.22;2.97;;;;;;;12.30;70.46;99454.00;5029622;28;20476;-80
2022/12/20 08:39:24;;;;;;;4.47;2.80;;;;;;;12.31;70.45;99437.22;5029752;28;20111;-85
2022/12/20 08:41:58;;;;;;;5.47;2.83;;;;;;;12.30;70.45;99447.88;5029712;28;20419;-80
2022/12/20 08:44:24;;;;;;;4.13;3.03;;;;;;;12.29;70.54;99439.13;5012236;28;20054;-80
2022/12/20 08:46:52;;;;;;;4.28;3.00;;;;;;;12.30;70.46;99439.97;5029464;28;20548;-80
2022/12/20 08:49:19;;;;;;;5.90;3.08;;;;;;;12.31;70.54;99444.28;5029709;28;20099;-80
2022/12/20 08:51:45;;;;;;;4.45;3.25;;;;;;;12.31;70.51;99442.50;5029518;28;20119;-79
2022/12/20 08:54:12;;;;;;;4.80;3.10;;;;;;;12.31;70.35;99449.56;5029632;28;20525;-79
2022/12/20 08:56:38;;;;;;;5.13;3.13;;;;;;;12.31;70.41;99445.16;5029539;28;20152;-80
2022/12/20 08:59:04;;;;;;;3.45;2.83;;;;;;;12.32;70.34;99446.84;5029667;28;20111;-79
2022/12/20 09:01:32;;;;;;;4.15;3.53;;;;;;;12.33;70.45;99452.94;5029358;28;20065;-79
2022/12/20 09:03:59;;;;;;;5.10;3.28;;;;;;;12.32;70.22;99449.47;5029610;28;20097;-80
2022/12/20 09:06:25;;;;;;;5.03;2.80;;;;;;;12.32;70.19;99445.97;5029441;28;20106;-79
2022/12/20 09:08:52;;;;;;;5.38;3.22;;;;;;;12.31;70.02;99429.31;5029275;28;20128;-79
2022/12/20 09:11:24;;;;;;;5.53;3.20;;;;;;;12.32;69.62;99441.56;5029400;28;20084;-79
2022/12/20 09:13:53;;;;;;;4.65;2.85;;;;;;;12.34;70.21;99433.53;5012137;28;20060;-80
2022/12/20 09:16:25;;;;;;;6.68;3.25;;;;;;;12.34;69.41;99433.53;5029223;28;20057;-79
2022/12/20 09:18:54;;;;;;;4.70;2.65;;;;;;;12.35;69.19;99446.63;5029241;28;20590;-79
2022/12/20 09:21:28;;;;;;;5.88;3.03;;;;;;;12.38;69.88;99429.72;5029255;28;20152;-79
2022/12/20 09:23:55;;;;;;;6.80;2.88;;;;;;;12.40;70.06;99429.63;5029424;28;20112;-79
2022/12/20 09:26:23;;;;;;;4.82;3.05;;;;;;;12.40;69.74;99432.25;5029038;28;20061;-79
2022/12/20 09:28:50;;;;;;;4.18;2.83;;;;;;;12.42;69.98;99433.00;5029066;28;20045;-79
2022/12/20 09:31:22;;;;;;;4.50;2.88;;;;;;;12.46;69.76;99422.13;5029196;28;20045;-79
2022/12/20 09:33:48;;;;;;;6.57;2.47;;;;;;;12.49;69.87;99421.88;5029063;28;20064;-79
2022/12/20 09:36:18;;;;;;;6.18;3.25;;;;;;;12.50;68.96;99435.94;5029209;28;20054;-80
2022/12/20 09:38:45;;;;;;;6.07;3.20;;;;;;;12.55;69.71;99435.59;5029041;28;20518;-79
2022/12/20 09:41:36;;;;;;;4.30;2.90;;;;;;;12.54;68.13;99431.28;5029280;28;20057;-79
2022/12/20 09:44:27;;;;;;;5.93;2.80;;;;;;;12.55;67.43;99433.81;5032574;28;20057;-80
2022/12/20 09:46:57;;;;;;;3.58;2.60;;;;;;;12.60;68.99;99428.22;5032273;28;20061;-79
2022/12/20 09:49:30;;;;;;;5.32;3.15;;;;;;;12.61;68.56;99435.19;5032704;28;20404;-79
2022/12/20 09:51:56;;;;;;;4.88;3.05;;;;;;;12.66;69.03;99430.41;5032468;28;20085;-80
2022/12/20 09:55:04;;;;;;;5.22;3.00;;;;;;;12.63;67.00;99431.47;5032884;28;20057;-79
2022/12/20 09:58:02;;;;;;;5.30;2.72;;;;;;;12.66;67.12;99424.28;5015185;28;20119;-79
2022/12/20 10:00:34;;;;;;;4.03;2.50;;;;;;;12.74;69.14;99427.22;5032572;28;20084;-79
2022/12/20 10:03:04;;;;;;;3.50;2.50;;;;;;;12.76;67.92;99425.31;5032881;28;20115;-79
2022/12/20 10:05:57;;;;;;;4.75;2.60;;;;;;;12.79;68.42;99430.38;5032289;28;20115;-79
2022/12/20 10:08:55;;;;;;;3.78;2.30;;;;;;;12.79;65.72;99418.97;5032021;28;20053;-79
2022/12/20 10:11:53;;;;;;;4.72;2.30;;;;;;;12.82;66.15;99424.03;5014635;28;20080;-79
2022/12/20 10:14:26;;;;;;;4.00;2.40;;;;;;;12.86;67.03;99415.78;5032271;28;20115;-79
2022/12/20 10:17:26;;;;;;;2.42;2.00;;;;;;;12.88;66.28;99420.94;5031888;28;20064;-79
2022/12/20 10:20:17;;;;;;;6.03;2.63;;;;;;;12.88;65.09;99415.66;5032101;28;20057;-79
2022/12/20 10:22:56;;;;;;;3.85;2.42;;;;;;;12.93;66.43;99426.72;5014305;28;20475;-79
2022/12/20 10:25:29;;;;;;;7.82;2.85;;;;;;;12.98;67.76;99413.22;5014159;28;20057;-80
2022/12/20 10:27:55;;;;;;;3.40;2.47;;;;;;;13.00;67.65;99416.56;5031524;28;20423;-79
2022/12/20 10:30:25;;;;;;;5.53;2.65;;;;;;;13.02;67.52;99409.38;5032208;28;20148;-79
2022/12/20 10:32:55;;;;;;;5.32;2.53;;;;;;;13.04;67.55;99412.75;5031423;28;20426;-79
2022/12/20 10:35:27;;;;;;;5.57;2.33;;;;;;;13.07;67.30;99404.59;5031713;28;20057;-79
2022/12/20 10:37:58;;;;;;;;;;;;;;;13.09;63.90;99399.22;5014597;28;20049;-79
2022/12/20 10:40:59;;;;;;;5.32;2.22;;;;;;;13.13;65.73;99408.59;5031560;28;19920;-80
2022/12/20 10:44:00;;;;;;;5.05;2.50;;;;;;;13.12;65.38;99410.38;5016605;28;20064;-79
2022/12/20 10:46:43;;;;;;;3.50;2.28;;;;;;;13.12;65.16;99402.47;5013794;28;20081;-79
2022/12/20 10:49:27;;;;;;;3.50;2.40;;;;;;;13.14;64.75;99405.84;5013998;28;20099;-79
2022/12/20 10:51:55;;;;;;;3.00;1.90;;;;;;;13.22;67.42;99396.50;5013859;28;20065;-79
2022/12/20 10:54:43;;;;;;;5.40;2.70;;;;;;;13.15;64.48;99396.09;5030869;28;20595;-79
2022/12/20 10:57:24;;;;;;;5.40;2.15;;;;;;;13.18;66.15;99392.38;5031291;28;20103;-80
2022/12/20 10:59:59;;;;;;;3.47;2.40;;;;;;;13.20;66.54;99390.50;5031491;28;20119;-79
2022/12/20 11:02:29;;;;;;;3.58;1.92;;;;;;;13.20;66.82;99386.03;5031291;28;20084;-79
2022/12/20 11:05:09;;;;;;;3.97;2.22;;;;;;;13.20;66.90;99374.63;5031192;28;20127;-79
2022/12/20 11:07:38;;;;;;;5.70;2.13;;;;;;;13.20;67.51;99369.34;5030827;28;20056;-79
2022/12/20 11:10:19;;;;;;;;;;;;;;;13.18;65.21;99371.25;5031761;28;20067;-79
2022/12/20 11:12:53;;;;;;;2.90;2.30;;;;;;;13.19;66.58;99365.84;5031226;28;19967;-79
2022/12/20 11:15:21;;;;;;;;;;;;;;;13.18;65.02;99353.59;5031645;28;20108;-79
2022/12/20 11:18:07;;;;;;;3.80;2.20;;;;;;;13.19;65.35;99363.22;5030885;28;19932;-79
2022/12/20 11:20:39;;;;;;;4.80;2.25;;;;;;;13.19;66.91;99352.63;5031259;28;20061;-79
2022/12/20 11:23:37;;;;;;;5.55;2.00;;;;;;;13.15;65.18;99354.66;5013294;28;20085;-79
2022/12/20 11:26:17;;;;;;;5.30;2.20;;;;;;;13.18;66.52;99337.75;5030549;28;20862;-79
2022/12/20 11:28:54;;;;;;;3.03;2.08;;;;;;;13.21;67.59;99341.94;5030635;28;20057;-80
2022/12/20 11:31:55;;;;;;;4.65;2.30;;;;;;;13.15;64.67;99349.38;5030775;28;20057;-79
2022/12/20 11:34:22;;;;;;;5.40;2.10;;;;;;;13.23;67.59;99342.69;5030710;28;20061;-79
2022/12/20 11:37:00;;;;;;;3.17;2.30;;;;;;;13.21;66.87;99331.38;5030256;28;20111;-79
2022/12/20 11:39:37;;;;;;;4.97;2.35;;;;;;;13.20;65.31;99335.00;5030730;28;20118;-80
2022/12/20 11:42:41;;;;;;;4.70;2.35;;;;;;;13.19;65.76;99331.50;5030444;28;20060;-79
2022/12/20 11:45:14;;;;;;;4.03;2.13;;;;;;;13.22;66.63;99323.34;5030437;28;20049;-79
2022/12/20 11:48:02;;;;;;;2.85;2.25;;;;;;;13.22;66.17;99319.84;5030360;28;20089;-79
2022/12/20 11:50:37;;;;;;;2.95;1.88;;;;;;;13.24;66.17;99326.69;5030513;28;20096;-79
2022/12/20 11:53:09;;;;;;;3.35;2.10;;;;;;;13.27;67.36;99328.28;5030259;28;20057;-79
2022/12/20 11:55:40;;;;;;;3.53;2.20;;;;;;;13.26;66.87;99319.50;5030080;28;20061;-79
2022/12/20 11:58:25;;;;;;;2.47;1.92;;;;;;;13.25;65.44;99327.56;5030312;28;20057;-79
2022/12/20 12:00:57;;;;;;;4.95;1.90;;;;;;;13.28;66.63;99322.88;5030204;28;20065;-80
2022/12/20 12:03:50;;;;;;;3.00;2.07;;;;;;;13.27;65.36;99317.72;5012587;28;20054;-80
2022/12/20 12:06:25;;;;;;;3.03;2.25;;;;;;;13.29;66.31;99323.72;5020377;28;20361;-80
2022/12/20 12:09:14;;;;;;;4.20;2.15;;;;;;;13.27;66.53;99312.44;5030016;28;20454;-80
2022/12/20 12:11:48;;;;;;;4.57;2.33;;;;;;;13.27;66.88;99310.63;5029865;28;20140;-80
2022/12/20 12:14:35;;;;;;;3.40;2.25;;;;;;;13.25;67.58;99307.25;5015200;28;20372;-79
2022/12/20 12:17:11;;;;;;;4.75;2.00;;;;;;;13.18;66.84;99305.19;5029834;28;20054;-79
2022/12/20 12:19:42;;;;;;;3.80;2.38;;;;;;;13.13;67.40;99314.28;5012421;28;20061;-79
2022/12/20 12:22:16;;;;;;;3.72;2.50;;;;;;;13.09;67.38;99304.91;5029803;28;20057;-79
2022/12/20 12:24:48;;;;;;;3.75;2.08;;;;;;;13.06;67.43;99310.44;5029687;28;20115;-79
2022/12/20 12:27:26;;;;;;;3.92;2.42;;;;;;;13.01;67.08;99310.78;5029821;28;20127;-80
2022/12/20 12:29:55;;;;;;;2.95;2.50;;;;;;;13.02;68.31;99293.13;5030056;28;20358;-79
2022/12/20 12:32:33;;;;;;;5.57;2.30;;;;;;;13.00;67.90;99292.38;5029591;28;20463;-79
2022/12/20 12:35:15;;;;;;;3.85;2.10;;;;;;;13.00;67.38;99297.66;5029632;28;20057;-79
2022/12/20 12:37:54;;;;;;;4.72;2.50;;;;;;;13.01;67.23;99296.75;5029623;28;20573;-79